sensor_id;sensor_type;location;lat;lon;timestamp;P1;durP1;ratioP1;P2;durP2;ratioP2
45368;SDS011;51342;55.250;37.668;2023-03-04T00:02:03;4.87;;;2.73;;
45368;SDS011;51342;55.250;37.668;2023-03-04T00:04:35;4.63;;;2.97;;
45368;SDS011;51342;55.250;37.668;2023-03-04T00:07:06;5.00;;;2.60;;
45368;SDS011;51342;55.250;37.668;2023-03-04T00:09:37;6.40;;;3.30;;
45368;SDS011;51342;55.250;37.668;2023-03-04T00:12:09;6.43;;;2.90;;
45368;SDS011;51342;55.250;37.668;2023-03-04T00:14:40;5.73;;;2.87;;
45368;SDS011;51342;55.250;37.668;2023-03-04T00:17:12;6.73;;;3.50;;
45368;SDS011;51342;55.250;37.668;2023-03-04T00:19:43;7.40;;;4.00;;
45368;SDS011;51342;55.250;37.668;2023-03-04T00:22:15;6.53;;;3.60;;
45368;SDS011;51342;55.250;37.668;2023-03-04T00:24:46;9.03;;;3.83;;
45368;SDS011;51342;55.250;37.668;2023-03-04T00:27:17;8.80;;;4.40;;
45368;SDS011;51342;55.250;37.668;2023-03-04T00:29:49;8.80;;;4.63;;
45368;SDS011;51342;55.250;37.668;2023-03-04T00:32:20;10.37;;;5.10;;
45368;SDS011;51342;55.250;37.668;2023-03-04T00:34:52;7.50;;;4.20;;
45368;SDS011;51342;55.250;37.668;2023-03-04T00:37:23;9.60;;;5.17;;
45368;SDS011;51342;55.250;37.668;2023-03-04T00:39:55;11.37;;;5.60;;
45368;SDS011;51342;55.250;37.668;2023-03-04T00:42:26;11.07;;;5.13;;
45368;SDS011;51342;55.250;37.668;2023-03-04T00:44:57;11.97;;;5.43;;
45368;SDS011;51342;55.250;37.668;2023-03-04T00:47:29;9.43;;;5.63;;
45368;SDS011;51342;55.250;37.668;2023-03-04T00:50:00;13.40;;;5.90;;
45368;SDS011;51342;55.250;37.668;2023-03-04T00:52:32;10.10;;;5.63;;
45368;SDS011;51342;55.250;37.668;2023-03-04T00:55:03;12.07;;;5.30;;
45368;SDS011;51342;55.250;37.668;2023-03-04T00:57:35;11.63;;;5.37;;
45368;SDS011;51342;55.250;37.668;2023-03-04T01:00:07;13.70;;;6.23;;
45368;SDS011;51342;55.250;37.668;2023-03-04T01:02:40;10.40;;;5.47;;
45368;SDS011;51342;55.250;37.668;2023-03-04T01:05:12;10.33;;;5.50;;
45368;SDS011;51342;55.250;37.668;2023-03-04T01:07:43;10.70;;;5.07;;
45368;SDS011;51342;55.250;37.668;2023-03-04T01:10:15;8.80;;;4.87;;
45368;SDS011;51342;55.250;37.668;2023-03-04T01:12:47;8.63;;;4.10;;
45368;SDS011;51342;55.250;37.668;2023-03-04T01:15:18;8.33;;;4.17;;
45368;SDS011;51342;55.250;37.668;2023-03-04T01:17:50;7.73;;;4.33;;
45368;SDS011;51342;55.250;37.668;2023-03-04T01:20:21;11.13;;;4.33;;
45368;SDS011;51342;55.250;37.668;2023-03-04T01:22:53;8.53;;;4.83;;
45368;SDS011;51342;55.250;37.668;2023-03-04T01:25:25;9.80;;;4.80;;
45368;SDS011;51342;55.250;37.668;2023-03-04T01:27:56;9.70;;;4.90;;
45368;SDS011;51342;55.250;37.668;2023-03-04T01:30:28;10.20;;;4.93;;
45368;SDS011;51342;55.250;37.668;2023-03-04T01:33:00;7.93;;;4.80;;
45368;SDS011;51342;55.250;37.668;2023-03-04T01:35:32;9.23;;;4.23;;
45368;SDS011;51342;55.250;37.668;2023-03-04T01:38:03;10.60;;;4.60;;
45368;SDS011;51342;55.250;37.668;2023-03-04T01:40:35;8.83;;;4.27;;
45368;SDS011;51342;55.250;37.668;2023-03-04T01:43:09;8.87;;;4.50;;
45368;SDS011;51342;55.250;37.668;2023-03-04T01:45:53;8.87;;;4.70;;
45368;SDS011;51342;55.250;37.668;2023-03-04T01:48:30;8.93;;;4.47;;
45368;SDS011;51342;55.250;37.668;2023-03-04T01:53:36;7.93;;;4.43;;
45368;SDS011;51342;55.250;37.668;2023-03-04T02:01:53;10.13;;;4.67;;
45368;SDS011;51342;55.250;37.668;2023-03-04T02:04:29;9.63;;;5.10;;
45368;SDS011;51342;55.250;37.668;2023-03-04T02:07:04;7.37;;;4.57;;
45368;SDS011;51342;55.250;37.668;2023-03-04T02:09:36;10.60;;;5.23;;
45368;SDS011;51342;55.250;37.668;2023-03-04T02:12:07;9.13;;;4.63;;
45368;SDS011;51342;55.250;37.668;2023-03-04T02:14:39;10.67;;;5.97;;
45368;SDS011;51342;55.250;37.668;2023-03-04T02:17:11;7.73;;;4.83;;
45368;SDS011;51342;55.250;37.668;2023-03-04T02:19:45;8.90;;;5.30;;
45368;SDS011;51342;55.250;37.668;2023-03-04T02:22:22;10.37;;;5.33;;
45368;SDS011;51342;55.250;37.668;2023-03-04T02:24:56;7.87;;;5.30;;
45368;SDS011;51342;55.250;37.668;2023-03-04T02:27:37;10.00;;;5.43;;
45368;SDS011;51342;55.250;37.668;2023-03-04T02:30:09;9.53;;;5.33;;
45368;SDS011;51342;55.250;37.668;2023-03-04T02:32:43;10.83;;;5.03;;
45368;SDS011;51342;55.250;37.668;2023-03-04T02:35:18;8.73;;;4.87;;
45368;SDS011;51342;55.250;37.668;2023-03-04T02:37:52;12.70;;;5.50;;
45368;SDS011;51342;55.250;37.668;2023-03-04T02:40:26;10.80;;;5.90;;
45368;SDS011;51342;55.250;37.668;2023-03-04T02:43:01;12.17;;;6.10;;
45368;SDS011;51342;55.250;37.668;2023-03-04T02:45:34;11.93;;;5.30;;
45368;SDS011;51342;55.250;37.668;2023-03-04T02:48:11;9.77;;;5.57;;
45368;SDS011;51342;55.250;37.668;2023-03-04T02:50:47;8.20;;;4.90;;
45368;SDS011;51342;55.250;37.668;2023-03-04T02:53:21;10.13;;;5.50;;
45368;SDS011;51342;55.250;37.668;2023-03-04T02:55:56;11.30;;;5.50;;
45368;SDS011;51342;55.250;37.668;2023-03-04T02:58:37;11.97;;;6.27;;
45368;SDS011;51342;55.250;37.668;2023-03-04T03:01:10;11.70;;;5.93;;
45368;SDS011;51342;55.250;37.668;2023-03-04T03:03:42;12.03;;;5.63;;
45368;SDS011;51342;55.250;37.668;2023-03-04T03:06:15;11.97;;;6.00;;
45368;SDS011;51342;55.250;37.668;2023-03-04T03:08:47;9.43;;;6.10;;
45368;SDS011;51342;55.250;37.668;2023-03-04T03:11:18;12.33;;;6.60;;
45368;SDS011;51342;55.250;37.668;2023-03-04T03:13:50;10.03;;;6.00;;
45368;SDS011;51342;55.250;37.668;2023-03-04T03:16:22;11.27;;;6.47;;
45368;SDS011;51342;55.250;37.668;2023-03-04T03:18:54;12.10;;;6.27;;
45368;SDS011;51342;55.250;37.668;2023-03-04T03:21:26;11.60;;;5.97;;
45368;SDS011;51342;55.250;37.668;2023-03-04T03:23:58;11.57;;;6.17;;
45368;SDS011;51342;55.250;37.668;2023-03-04T03:26:29;14.40;;;6.07;;
45368;SDS011;51342;55.250;37.668;2023-03-04T03:29:01;15.83;;;7.30;;
45368;SDS011;51342;55.250;37.668;2023-03-04T03:31:33;13.53;;;6.83;;
45368;SDS011;51342;55.250;37.668;2023-03-04T03:34:04;11.13;;;6.07;;
45368;SDS011;51342;55.250;37.668;2023-03-04T03:36:36;9.77;;;5.37;;
45368;SDS011;51342;55.250;37.668;2023-03-04T03:39:07;11.77;;;5.27;;
45368;SDS011;51342;55.250;37.668;2023-03-04T03:41:39;8.00;;;3.70;;
45368;SDS011;51342;55.250;37.668;2023-03-04T03:44:10;6.27;;;3.97;;
45368;SDS011;51342;55.250;37.668;2023-03-04T03:46:42;6.73;;;3.77;;
45368;SDS011;51342;55.250;37.668;2023-03-04T03:49:13;6.13;;;3.70;;
45368;SDS011;51342;55.250;37.668;2023-03-04T03:51:47;7.70;;;3.80;;
45368;SDS011;51342;55.250;37.668;2023-03-04T03:54:18;5.87;;;2.80;;
45368;SDS011;51342;55.250;37.668;2023-03-04T03:56:50;4.70;;;2.93;;
45368;SDS011;51342;55.250;37.668;2023-03-04T03:59:21;5.00;;;2.47;;
45368;SDS011;51342;55.250;37.668;2023-03-04T04:01:54;3.83;;;2.67;;
45368;SDS011;51342;55.250;37.668;2023-03-04T04:04:25;5.93;;;2.93;;
45368;SDS011;51342;55.250;37.668;2023-03-04T04:06:56;5.10;;;2.77;;
45368;SDS011;51342;55.250;37.668;2023-03-04T04:09:28;6.47;;;3.20;;
45368;SDS011;51342;55.250;37.668;2023-03-04T04:12:00;4.87;;;2.70;;
45368;SDS011;51342;55.250;37.668;2023-03-04T04:14:32;6.73;;;2.73;;
45368;SDS011;51342;55.250;37.668;2023-03-04T04:17:04;6.43;;;2.73;;
45368;SDS011;51342;55.250;37.668;2023-03-04T04:19:35;6.17;;;3.10;;
45368;SDS011;51342;55.250;37.668;2023-03-04T04:22:08;6.60;;;3.37;;
45368;SDS011;51342;55.250;37.668;2023-03-04T04:24:47;5.37;;;2.37;;
45368;SDS011;51342;55.250;37.668;2023-03-04T04:27:18;4.97;;;2.93;;
45368;SDS011;51342;55.250;37.668;2023-03-04T04:29:50;4.80;;;2.80;;
45368;SDS011;51342;55.250;37.668;2023-03-04T04:32:21;6.37;;;2.90;;
45368;SDS011;51342;55.250;37.668;2023-03-04T04:34:53;7.60;;;2.90;;
45368;SDS011;51342;55.250;37.668;2023-03-04T04:37:25;4.40;;;2.57;;
45368;SDS011;51342;55.250;37.668;2023-03-04T04:39:59;4.80;;;2.37;;
45368;SDS011;51342;55.250;37.668;2023-03-04T04:42:31;4.47;;;2.10;;
45368;SDS011;51342;55.250;37.668;2023-03-04T04:45:03;5.67;;;2.07;;
45368;SDS011;51342;55.250;37.668;2023-03-04T04:47:38;7.83;;;2.00;;
45368;SDS011;51342;55.250;37.668;2023-03-04T04:50:09;4.90;;;2.37;;
45368;SDS011;51342;55.250;37.668;2023-03-04T04:52:41;7.27;;;2.47;;
45368;SDS011;51342;55.250;37.668;2023-03-04T04:55:13;5.83;;;2.97;;
45368;SDS011;51342;55.250;37.668;2023-03-04T04:57:44;3.83;;;2.53;;
45368;SDS011;51342;55.250;37.668;2023-03-04T05:00:16;4.90;;;2.50;;
45368;SDS011;51342;55.250;37.668;2023-03-04T05:02:49;5.13;;;2.43;;
45368;SDS011;51342;55.250;37.668;2023-03-04T05:05:20;4.57;;;2.40;;
45368;SDS011;51342;55.250;37.668;2023-03-04T05:07:51;3.00;;;2.13;;
45368;SDS011;51342;55.250;37.668;2023-03-04T05:10:23;4.73;;;2.30;;
45368;SDS011;51342;55.250;37.668;2023-03-04T05:12:54;3.97;;;2.20;;
45368;SDS011;51342;55.250;37.668;2023-03-04T05:15:26;5.50;;;2.10;;
45368;SDS011;51342;55.250;37.668;2023-03-04T05:18:00;6.47;;;2.40;;
45368;SDS011;51342;55.250;37.668;2023-03-04T05:20:31;6.00;;;2.73;;
45368;SDS011;51342;55.250;37.668;2023-03-04T05:23:03;5.70;;;2.40;;
45368;SDS011;51342;55.250;37.668;2023-03-04T05:25:34;5.67;;;2.50;;
45368;SDS011;51342;55.250;37.668;2023-03-04T05:28:06;3.43;;;2.17;;
45368;SDS011;51342;55.250;37.668;2023-03-04T05:30:42;4.63;;;2.17;;
45368;SDS011;51342;55.250;37.668;2023-03-04T05:33:15;5.87;;;2.30;;
45368;SDS011;51342;55.250;37.668;2023-03-04T05:35:48;3.83;;;2.37;;
45368;SDS011;51342;55.250;37.668;2023-03-04T05:38:20;6.03;;;2.73;;
45368;SDS011;51342;55.250;37.668;2023-03-04T05:40:56;10.37;;;2.63;;
45368;SDS011;51342;55.250;37.668;2023-03-04T05:43:29;6.75;;;2.67;;
45368;SDS011;51342;55.250;37.668;2023-03-04T05:46:02;5.30;;;2.67;;
45368;SDS011;51342;55.250;37.668;2023-03-04T05:49:08;6.33;;;2.80;;
45368;SDS011;51342;55.250;37.668;2023-03-04T05:51:43;6.40;;;3.10;;
45368;SDS011;51342;55.250;37.668;2023-03-04T05:54:26;5.43;;;3.47;;
45368;SDS011;51342;55.250;37.668;2023-03-04T05:56:59;6.00;;;3.20;;
45368;SDS011;51342;55.250;37.668;2023-03-04T05:59:37;5.50;;;3.37;;
45368;SDS011;51342;55.250;37.668;2023-03-04T06:02:09;6.30;;;3.43;;
45368;SDS011;51342;55.250;37.668;2023-03-04T06:04:40;4.57;;;3.17;;
45368;SDS011;51342;55.250;37.668;2023-03-04T06:07:12;6.60;;;3.33;;
45368;SDS011;51342;55.250;37.668;2023-03-04T06:09:44;5.87;;;3.57;;
45368;SDS011;51342;55.250;37.668;2023-03-04T06:12:15;6.33;;;3.57;;
45368;SDS011;51342;55.250;37.668;2023-03-04T06:14:47;7.70;;;3.20;;
45368;SDS011;51342;55.250;37.668;2023-03-04T06:17:19;7.43;;;3.50;;
45368;SDS011;51342;55.250;37.668;2023-03-04T06:19:50;5.30;;;3.60;;
45368;SDS011;51342;55.250;37.668;2023-03-04T06:22:22;6.17;;;3.57;;
45368;SDS011;51342;55.250;37.668;2023-03-04T06:25:15;5.30;;;3.40;;
45368;SDS011;51342;55.250;37.668;2023-03-04T06:27:47;5.10;;;3.20;;
45368;SDS011;51342;55.250;37.668;2023-03-04T06:30:19;6.70;;;3.33;;
45368;SDS011;51342;55.250;37.668;2023-03-04T06:32:54;5.63;;;3.20;;
45368;SDS011;51342;55.250;37.668;2023-03-04T06:35:28;5.60;;;3.00;;
45368;SDS011;51342;55.250;37.668;2023-03-04T06:38:13;5.50;;;2.80;;
45368;SDS011;51342;55.250;37.668;2023-03-04T06:40:45;6.87;;;3.23;;
45368;SDS011;51342;55.250;37.668;2023-03-04T06:46:27;7.00;;;3.37;;
45368;SDS011;51342;55.250;37.668;2023-03-04T06:49:14;5.88;;;3.20;;
45368;SDS011;51342;55.250;37.668;2023-03-04T06:55:41;4.87;;;3.10;;
45368;SDS011;51342;55.250;37.668;2023-03-04T06:58:13;6.57;;;3.13;;
45368;SDS011;51342;55.250;37.668;2023-03-04T07:04:53;6.33;;;3.90;;
45368;SDS011;51342;55.250;37.668;2023-03-04T07:12:19;6.37;;;3.57;;
45368;SDS011;51342;55.250;37.668;2023-03-04T07:14:51;5.93;;;3.40;;
45368;SDS011;51342;55.250;37.668;2023-03-04T07:17:22;5.23;;;3.13;;
45368;SDS011;51342;55.250;37.668;2023-03-04T07:19:54;6.10;;;3.13;;
45368;SDS011;51342;55.250;37.668;2023-03-04T07:22:25;4.53;;;2.90;;
45368;SDS011;51342;55.250;37.668;2023-03-04T07:24:56;6.63;;;3.43;;
45368;SDS011;51342;55.250;37.668;2023-03-04T07:27:28;5.57;;;3.30;;
45368;SDS011;51342;55.250;37.668;2023-03-04T07:29:59;6.47;;;3.13;;
45368;SDS011;51342;55.250;37.668;2023-03-04T07:32:30;6.40;;;3.63;;
45368;SDS011;51342;55.250;37.668;2023-03-04T07:35:04;4.47;;;3.27;;
45368;SDS011;51342;55.250;37.668;2023-03-04T07:37:36;4.60;;;3.33;;
45368;SDS011;51342;55.250;37.668;2023-03-04T07:40:07;4.17;;;2.87;;
45368;SDS011;51342;55.250;37.668;2023-03-04T07:42:39;4.90;;;3.00;;
45368;SDS011;51342;55.250;37.668;2023-03-04T07:45:15;4.57;;;3.07;;
45368;SDS011;51342;55.250;37.668;2023-03-04T07:47:46;4.17;;;2.90;;
45368;SDS011;51342;55.250;37.668;2023-03-04T07:50:18;4.07;;;2.80;;
45368;SDS011;51342;55.250;37.668;2023-03-04T07:52:50;3.83;;;2.90;;
45368;SDS011;51342;55.250;37.668;2023-03-04T07:55:22;6.37;;;3.10;;
45368;SDS011;51342;55.250;37.668;2023-03-04T07:57:53;5.63;;;2.63;;
45368;SDS011;51342;55.250;37.668;2023-03-04T08:00:24;3.83;;;2.70;;
45368;SDS011;51342;55.250;37.668;2023-03-04T08:02:56;5.13;;;3.00;;
45368;SDS011;51342;55.250;37.668;2023-03-04T08:05:27;4.13;;;2.70;;
45368;SDS011;51342;55.250;37.668;2023-03-04T08:07:58;4.67;;;2.87;;
45368;SDS011;51342;55.250;37.668;2023-03-04T08:10:30;6.17;;;3.00;;
45368;SDS011;51342;55.250;37.668;2023-03-04T08:13:01;4.67;;;3.20;;
45368;SDS011;51342;55.250;37.668;2023-03-04T08:15:32;3.90;;;3.27;;
45368;SDS011;51342;55.250;37.668;2023-03-04T08:18:05;4.90;;;2.87;;
45368;SDS011;51342;55.250;37.668;2023-03-04T08:20:36;4.63;;;2.77;;
45368;SDS011;51342;55.250;37.668;2023-03-04T08:23:12;4.63;;;3.00;;
45368;SDS011;51342;55.250;37.668;2023-03-04T08:25:44;5.23;;;2.13;;
45368;SDS011;51342;55.250;37.668;2023-03-04T08:28:16;3.70;;;2.40;;
45368;SDS011;51342;55.250;37.668;2023-03-04T08:30:51;3.50;;;2.30;;
45368;SDS011;51342;55.250;37.668;2023-03-04T08:33:23;4.97;;;2.30;;
45368;SDS011;51342;55.250;37.668;2023-03-04T08:35:55;3.57;;;2.40;;
45368;SDS011;51342;55.250;37.668;2023-03-04T08:38:26;3.20;;;2.00;;
45368;SDS011;51342;55.250;37.668;2023-03-04T08:40:58;4.00;;;2.07;;
45368;SDS011;51342;55.250;37.668;2023-03-04T08:43:29;3.27;;;2.17;;
45368;SDS011;51342;55.250;37.668;2023-03-04T08:46:01;3.60;;;1.80;;
45368;SDS011;51342;55.250;37.668;2023-03-04T08:48:33;3.07;;;1.60;;
45368;SDS011;51342;55.250;37.668;2023-03-04T08:51:08;3.63;;;2.60;;
45368;SDS011;51342;55.250;37.668;2023-03-04T08:53:41;4.10;;;1.40;;
45368;SDS011;51342;55.250;37.668;2023-03-04T08:56:13;1.83;;;1.30;;
45368;SDS011;51342;55.250;37.668;2023-03-04T08:58:45;3.07;;;1.60;;
45368;SDS011;51342;55.250;37.668;2023-03-04T09:01:16;3.90;;;1.70;;
45368;SDS011;51342;55.250;37.668;2023-03-04T09:03:47;1.97;;;1.30;;
45368;SDS011;51342;55.250;37.668;2023-03-04T09:06:19;2.50;;;1.30;;
45368;SDS011;51342;55.250;37.668;2023-03-04T09:08:50;2.20;;;1.37;;
45368;SDS011;51342;55.250;37.668;2023-03-04T09:11:22;2.60;;;1.60;;
45368;SDS011;51342;55.250;37.668;2023-03-04T09:13:53;2.23;;;1.27;;
45368;SDS011;51342;55.250;37.668;2023-03-04T09:16:25;2.83;;;1.83;;
45368;SDS011;51342;55.250;37.668;2023-03-04T09:18:56;2.27;;;1.50;;
45368;SDS011;51342;55.250;37.668;2023-03-04T09:21:28;3.67;;;1.70;;
45368;SDS011;51342;55.250;37.668;2023-03-04T09:23:59;3.23;;;1.80;;
45368;SDS011;51342;55.250;37.668;2023-03-04T09:26:30;2.23;;;1.50;;
45368;SDS011;51342;55.250;37.668;2023-03-04T09:29:02;2.33;;;1.70;;
45368;SDS011;51342;55.250;37.668;2023-03-04T09:31:34;2.63;;;1.50;;
45368;SDS011;51342;55.250;37.668;2023-03-04T09:34:05;3.17;;;1.50;;
45368;SDS011;51342;55.250;37.668;2023-03-04T09:36:37;2.60;;;1.43;;
45368;SDS011;51342;55.250;37.668;2023-03-04T09:39:08;3.57;;;1.43;;
45368;SDS011;51342;55.250;37.668;2023-03-04T09:41:41;2.43;;;1.30;;
45368;SDS011;51342;55.250;37.668;2023-03-04T09:44:20;2.60;;;1.40;;
45368;SDS011;51342;55.250;37.668;2023-03-04T09:47:00;2.60;;;1.33;;
45368;SDS011;51342;55.250;37.668;2023-03-04T09:49:38;3.03;;;1.60;;
45368;SDS011;51342;55.250;37.668;2023-03-04T09:52:17;2.73;;;1.60;;
45368;SDS011;51342;55.250;37.668;2023-03-04T09:55:20;3.20;;;1.33;;
45368;SDS011;51342;55.250;37.668;2023-03-04T09:58:06;2.23;;;1.47;;
45368;SDS011;51342;55.250;37.668;2023-03-04T10:00:43;3.30;;;1.30;;
45368;SDS011;51342;55.250;37.668;2023-03-04T10:03:20;1.93;;;1.10;;
45368;SDS011;51342;55.250;37.668;2023-03-04T10:05:56;2.03;;;1.20;;
45368;SDS011;51342;55.250;37.668;2023-03-04T10:16:54;2.87;;;1.27;;
45368;SDS011;51342;55.250;37.668;2023-03-04T10:25:14;1.53;;;1.03;;
45368;SDS011;51342;55.250;37.668;2023-03-04T10:27:51;1.30;;;0.83;;
45368;SDS011;51342;55.250;37.668;2023-03-04T10:33:32;2.30;;;1.10;;
45368;SDS011;51342;55.250;37.668;2023-03-04T10:36:16;3.87;;;1.83;;
45368;SDS011;51342;55.250;37.668;2023-03-04T10:38:59;2.60;;;0.90;;
45368;SDS011;51342;55.250;37.668;2023-03-04T10:41:32;1.67;;;1.00;;
45368;SDS011;51342;55.250;37.668;2023-03-04T10:46:39;3.27;;;1.20;;
45368;SDS011;51342;55.250;37.668;2023-03-04T10:49:16;2.50;;;0.93;;
45368;SDS011;51342;55.250;37.668;2023-03-04T10:52:02;2.83;;;1.37;;
45368;SDS011;51342;55.250;37.668;2023-03-04T10:54:49;1.77;;;1.07;;
45368;SDS011;51342;55.250;37.668;2023-03-04T10:57:36;1.50;;;0.93;;
45368;SDS011;51342;55.250;37.668;2023-03-04T11:02:48;1.67;;;1.15;;
45368;SDS011;51342;55.250;37.668;2023-03-04T11:05:20;2.17;;;0.97;;
45368;SDS011;51342;55.250;37.668;2023-03-04T11:07:54;2.57;;;1.00;;
45368;SDS011;51342;55.250;37.668;2023-03-04T11:10:29;3.00;;;1.30;;
45368;SDS011;51342;55.250;37.668;2023-03-04T11:13:07;2.30;;;1.20;;
45368;SDS011;51342;55.250;37.668;2023-03-04T11:15:49;2.07;;;1.10;;
45368;SDS011;51342;55.250;37.668;2023-03-04T11:21:18;2.80;;;1.20;;
45368;SDS011;51342;55.250;37.668;2023-03-04T11:23:58;2.97;;;1.07;;
45368;SDS011;51342;55.250;37.668;2023-03-04T11:26:38;1.83;;;1.20;;
45368;SDS011;51342;55.250;37.668;2023-03-04T11:34:55;2.70;;;1.20;;
45368;SDS011;51342;55.250;37.668;2023-03-04T11:40:43;2.37;;;1.10;;
45368;SDS011;51342;55.250;37.668;2023-03-04T11:43:31;2.40;;;1.27;;
45368;SDS011;51342;55.250;37.668;2023-03-04T11:46:14;1.43;;;1.00;;
45368;SDS011;51342;55.250;37.668;2023-03-04T12:00:46;4.57;;;1.70;;
45368;SDS011;51342;55.250;37.668;2023-03-04T12:06:24;2.33;;;1.10;;
45368;SDS011;51342;55.250;37.668;2023-03-04T12:15:22;2.77;;;1.30;;
45368;SDS011;51342;55.250;37.668;2023-03-04T12:18:25;2.20;;;1.23;;
45368;SDS011;51342;55.250;37.668;2023-03-04T12:21:07;2.10;;;1.33;;
45368;SDS011;51342;55.250;37.668;2023-03-04T12:23:44;3.90;;;1.77;;
45368;SDS011;51342;55.250;37.668;2023-03-04T12:26:36;2.20;;;1.20;;
45368;SDS011;51342;55.250;37.668;2023-03-04T12:29:17;2.73;;;1.50;;
45368;SDS011;51342;55.250;37.668;2023-03-04T12:32:20;2.83;;;1.33;;
45368;SDS011;51342;55.250;37.668;2023-03-04T12:40:54;2.90;;;1.77;;
45368;SDS011;51342;55.250;37.668;2023-03-04T12:54:57;3.57;;;1.40;;
45368;SDS011;51342;55.250;37.668;2023-03-04T12:57:33;3.57;;;1.30;;
45368;SDS011;51342;55.250;37.668;2023-03-04T13:00:54;2.20;;;1.50;;
45368;SDS011;51342;55.250;37.668;2023-03-04T13:03:40;2.50;;;1.37;;
45368;SDS011;51342;55.250;37.668;2023-03-04T13:09:18;2.97;;;1.70;;
45368;SDS011;51342;55.250;37.668;2023-03-04T13:17:45;3.97;;;1.90;;
45368;SDS011;51342;55.250;37.668;2023-03-04T13:25:46;3.90;;;2.60;;
45368;SDS011;51342;55.250;37.668;2023-03-04T13:31:05;2.40;;;1.80;;
45368;SDS011;51342;55.250;37.668;2023-03-04T13:39:27;5.17;;;2.40;;
45368;SDS011;51342;55.250;37.668;2023-03-04T13:41:59;4.67;;;2.23;;
45368;SDS011;51342;55.250;37.668;2023-03-04T13:47:16;5.43;;;3.10;;
45368;SDS011;51342;55.250;37.668;2023-03-04T13:49:50;3.10;;;2.33;;
45368;SDS011;51342;55.250;37.668;2023-03-04T13:53:26;4.23;;;2.43;;
45368;SDS011;51342;55.250;37.668;2023-03-04T14:04:11;5.13;;;3.00;;
45368;SDS011;51342;55.250;37.668;2023-03-04T14:06:51;3.37;;;2.50;;
45368;SDS011;51342;55.250;37.668;2023-03-04T14:09:25;4.00;;;2.40;;
45368;SDS011;51342;55.250;37.668;2023-03-04T14:12:02;3.67;;;2.57;;
45368;SDS011;51342;55.250;37.668;2023-03-04T14:14:46;3.30;;;2.80;;
45368;SDS011;51342;55.250;37.668;2023-03-04T14:17:19;5.87;;;2.30;;
45368;SDS011;51342;55.250;37.668;2023-03-04T14:19:53;3.20;;;2.10;;
45368;SDS011;51342;55.250;37.668;2023-03-04T14:22:27;3.50;;;2.47;;
45368;SDS011;51342;55.250;37.668;2023-03-04T14:25:19;3.43;;;2.10;;
45368;SDS011;51342;55.250;37.668;2023-03-04T14:30:40;2.88;;;2.00;;
45368;SDS011;51342;55.250;37.668;2023-03-04T14:33:47;3.00;;;2.17;;
45368;SDS011;51342;55.250;37.668;2023-03-04T14:36:19;3.53;;;2.00;;
45368;SDS011;51342;55.250;37.668;2023-03-04T14:38:54;3.17;;;2.20;;
45368;SDS011;51342;55.250;37.668;2023-03-04T14:41:32;3.70;;;2.50;;
45368;SDS011;51342;55.250;37.668;2023-03-04T14:49:52;3.22;;;2.60;;
45368;SDS011;51342;55.250;37.668;2023-03-04T14:52:25;4.10;;;2.90;;
45368;SDS011;51342;55.250;37.668;2023-03-04T14:55:16;4.23;;;3.03;;
45368;SDS011;51342;55.250;37.668;2023-03-04T14:57:54;4.00;;;2.80;;
45368;SDS011;51342;55.250;37.668;2023-03-04T15:00:40;4.72;;;3.05;;
45368;SDS011;51342;55.250;37.668;2023-03-04T15:03:29;4.13;;;3.20;;
45368;SDS011;51342;55.250;37.668;2023-03-04T15:08:58;4.60;;;3.33;;
45368;SDS011;51342;55.250;37.668;2023-03-04T15:11:43;4.80;;;3.23;;
45368;SDS011;51342;55.250;37.668;2023-03-04T15:20:26;5.07;;;2.97;;
45368;SDS011;51342;55.250;37.668;2023-03-04T15:25:24;4.77;;;3.47;;
45368;SDS011;51342;55.250;37.668;2023-03-04T15:27:57;7.03;;;3.40;;
45368;SDS011;51342;55.250;37.668;2023-03-04T15:30:32;4.63;;;3.57;;
45368;SDS011;51342;55.250;37.668;2023-03-04T15:33:04;6.80;;;3.63;;
45368;SDS011;51342;55.250;37.668;2023-03-04T15:35:39;9.40;;;5.57;;
45368;SDS011;51342;55.250;37.668;2023-03-04T15:38:15;4.90;;;3.67;;
45368;SDS011;51342;55.250;37.668;2023-03-04T15:40:46;15.37;;;7.77;;
45368;SDS011;51342;55.250;37.668;2023-03-04T15:43:19;9.43;;;6.03;;
45368;SDS011;51342;55.250;37.668;2023-03-04T15:45:52;13.40;;;8.37;;
45368;SDS011;51342;55.250;37.668;2023-03-04T15:48:23;29.00;;;15.13;;
45368;SDS011;51342;55.250;37.668;2023-03-04T15:50:56;31.60;;;18.27;;
45368;SDS011;51342;55.250;37.668;2023-03-04T15:56:04;5.93;;;4.63;;
45368;SDS011;51342;55.250;37.668;2023-03-04T15:58:52;6.63;;;4.60;;
45368;SDS011;51342;55.250;37.668;2023-03-04T16:04:11;6.30;;;3.87;;
45368;SDS011;51342;55.250;37.668;2023-03-04T16:06:45;6.17;;;4.63;;
45368;SDS011;51342;55.250;37.668;2023-03-04T16:09:18;6.50;;;4.60;;
45368;SDS011;51342;55.250;37.668;2023-03-04T16:11:51;7.40;;;4.80;;
45368;SDS011;51342;55.250;37.668;2023-03-04T16:14:26;5.37;;;4.30;;
45368;SDS011;51342;55.250;37.668;2023-03-04T16:16:57;6.87;;;5.03;;
45368;SDS011;51342;55.250;37.668;2023-03-04T16:19:29;7.57;;;4.73;;
45368;SDS011;51342;55.250;37.668;2023-03-04T16:22:00;6.40;;;4.80;;
45368;SDS011;51342;55.250;37.668;2023-03-04T16:24:32;6.50;;;4.67;;
45368;SDS011;51342;55.250;37.668;2023-03-04T16:27:05;7.00;;;4.57;;
45368;SDS011;51342;55.250;37.668;2023-03-04T16:29:40;7.20;;;4.97;;
45368;SDS011;51342;55.250;37.668;2023-03-04T16:32:12;6.60;;;4.73;;
45368;SDS011;51342;55.250;37.668;2023-03-04T16:34:43;7.57;;;5.00;;
45368;SDS011;51342;55.250;37.668;2023-03-04T16:37:16;6.73;;;4.87;;
45368;SDS011;51342;55.250;37.668;2023-03-04T16:39:49;7.90;;;5.20;;
45368;SDS011;51342;55.250;37.668;2023-03-04T16:42:20;7.27;;;5.30;;
45368;SDS011;51342;55.250;37.668;2023-03-04T16:44:52;6.87;;;4.90;;
45368;SDS011;51342;55.250;37.668;2023-03-04T16:47:25;7.73;;;5.27;;
45368;SDS011;51342;55.250;37.668;2023-03-04T16:49:57;5.90;;;4.87;;
45368;SDS011;51342;55.250;37.668;2023-03-04T16:52:30;8.47;;;5.80;;
45368;SDS011;51342;55.250;37.668;2023-03-04T16:55:02;9.27;;;5.40;;
45368;SDS011;51342;55.250;37.668;2023-03-04T16:57:33;8.23;;;5.30;;
45368;SDS011;51342;55.250;37.668;2023-03-04T17:00:06;8.17;;;5.77;;
45368;SDS011;51342;55.250;37.668;2023-03-04T17:02:40;9.43;;;5.73;;
45368;SDS011;51342;55.250;37.668;2023-03-04T17:05:18;8.93;;;5.07;;
45368;SDS011;51342;55.250;37.668;2023-03-04T17:07:52;8.87;;;5.50;;
45368;SDS011;51342;55.250;37.668;2023-03-04T17:10:23;6.77;;;4.83;;
45368;SDS011;51342;55.250;37.668;2023-03-04T17:12:55;7.80;;;4.97;;
45368;SDS011;51342;55.250;37.668;2023-03-04T17:15:26;6.70;;;5.30;;
45368;SDS011;51342;55.250;37.668;2023-03-04T17:17:58;7.03;;;4.43;;
45368;SDS011;51342;55.250;37.668;2023-03-04T17:20:29;6.37;;;4.17;;
45368;SDS011;51342;55.250;37.668;2023-03-04T17:23:00;5.33;;;3.90;;
45368;SDS011;51342;55.250;37.668;2023-03-04T17:25:32;5.57;;;3.43;;
45368;SDS011;51342;55.250;37.668;2023-03-04T17:28:03;5.57;;;3.63;;
45368;SDS011;51342;55.250;37.668;2023-03-04T17:30:35;4.93;;;3.33;;
45368;SDS011;51342;55.250;37.668;2023-03-04T17:33:06;5.67;;;3.70;;
45368;SDS011;51342;55.250;37.668;2023-03-04T17:35:38;5.00;;;3.40;;
45368;SDS011;51342;55.250;37.668;2023-03-04T17:38:11;4.63;;;3.23;;
45368;SDS011;51342;55.250;37.668;2023-03-04T17:40:43;5.60;;;3.03;;
45368;SDS011;51342;55.250;37.668;2023-03-04T17:43:14;4.83;;;3.20;;
45368;SDS011;51342;55.250;37.668;2023-03-04T17:45:45;4.37;;;2.93;;
45368;SDS011;51342;55.250;37.668;2023-03-04T17:48:17;5.13;;;3.17;;
45368;SDS011;51342;55.250;37.668;2023-03-04T17:50:49;5.63;;;3.67;;
45368;SDS011;51342;55.250;37.668;2023-03-04T17:53:22;6.67;;;3.10;;